KPQI

Northern Maine Regional Arpt at Presque Is Airport

Presque Isle, Maine, USA
METAR KPQI 210356Z AUTO 32014G24KT 10SM CLR M02/M08 A2971 RMK AO2 PK WND 31027/0303 SLP104 T10221083 FZRANO
Observed Flight Rules
Jan-21 @ 03:56 UTC (37 minutes ago) Visual Flight Rules
Wind Visibility Clouds
320° at 14 knots
 Gusting to 24 knots
10 miles
  • Clear skies
Temperatures Readings
Current -2°C / 28°F
Dewpoint -8°C / 18°F
Humidity 64%
Altimeter 29.71" Hg
Pressure 1010.4 hPa
Elevation 146
METAR KPQI 210356Z AUTO 32014G24KT 10SM CLR M02/M08 A2971 RMK AO2 PK WND 31027/0303 SLP104 T10221083 FZRANO
Observed Flight Rules
Jan-21 @ 03:56 UTC
(37 minutes ago)
VFR
Wind Visibility
320° at 14 knots
 Gusting to 24 knots
10 miles
Clouds
  • Clear skies
Temperature Dewpoint
-2°C / 28°F -8°C / 18°F
Humidity Altimeter Pressure
64% 29.71" Hg 1010.4 hPa